sensor_id;sensor_type;location;lat;lon;timestamp;temperature;humidity
43047;DHT22;28672;49.358;8.780;2022-07-06T00:01:43;16.60;99.90
43047;DHT22;28672;49.358;8.780;2022-07-06T00:04:08;16.60;99.90
43047;DHT22;28672;49.358;8.780;2022-07-06T00:06:34;16.60;99.90
43047;DHT22;28672;49.358;8.780;2022-07-06T00:08:59;16.50;99.90
43047;DHT22;28672;49.358;8.780;2022-07-06T00:11:25;16.50;99.90
43047;DHT22;28672;49.358;8.780;2022-07-06T00:13:51;16.40;99.90
43047;DHT22;28672;49.358;8.780;2022-07-06T00:16:17;16.30;99.90
43047;DHT22;28672;49.358;8.780;2022-07-06T00:18:43;16.30;99.90
43047;DHT22;28672;49.358;8.780;2022-07-06T00:21:08;16.30;99.90
43047;DHT22;28672;49.358;8.780;2022-07-06T00:23:34;16.30;99.90
43047;DHT22;28672;49.358;8.780;2022-07-06T00:25:59;16.30;99.90
43047;DHT22;28672;49.358;8.780;2022-07-06T00:28:25;16.30;99.90
43047;DHT22;28672;49.358;8.780;2022-07-06T00:30:50;16.40;99.90
43047;DHT22;28672;49.358;8.780;2022-07-06T00:33:16;16.30;99.90
43047;DHT22;28672;49.358;8.780;2022-07-06T00:35:42;16.30;99.90
43047;DHT22;28672;49.358;8.780;2022-07-06T00:38:07;16.20;99.90
43047;DHT22;28672;49.358;8.780;2022-07-06T00:40:33;16.20;99.90
43047;DHT22;28672;49.358;8.780;2022-07-06T00:42:59;16.20;99.90
43047;DHT22;28672;49.358;8.780;2022-07-06T00:45:24;16.20;99.90
43047;DHT22;28672;49.358;8.780;2022-07-06T00:47:50;16.10;99.90
43047;DHT22;28672;49.358;8.780;2022-07-06T00:50:16;16.00;99.90
43047;DHT22;28672;49.358;8.780;2022-07-06T00:52:56;16.00;99.90
43047;DHT22;28672;49.358;8.780;2022-07-06T00:55:25;16.10;99.90
43047;DHT22;28672;49.358;8.780;2022-07-06T00:57:51;16.00;99.90
43047;DHT22;28672;49.358;8.780;2022-07-06T01:00:19;16.00;99.90
43047;DHT22;28672;49.358;8.780;2022-07-06T01:02:45;15.90;99.90
43047;DHT22;28672;49.358;8.780;2022-07-06T01:05:13;16.00;99.90
43047;DHT22;28672;49.358;8.780;2022-07-06T01:07:40;15.90;99.90
43047;DHT22;28672;49.358;8.780;2022-07-06T01:10:07;16.00;99.90
43047;DHT22;28672;49.358;8.780;2022-07-06T01:12:37;15.90;99.90
43047;DHT22;28672;49.358;8.780;2022-07-06T01:15:03;15.90;99.90
43047;DHT22;28672;49.358;8.780;2022-07-06T01:17:30;16.00;99.90
43047;DHT22;28672;49.358;8.780;2022-07-06T01:19:57;16.10;99.90
43047;DHT22;28672;49.358;8.780;2022-07-06T01:22:23;16.20;99.90
43047;DHT22;28672;49.358;8.780;2022-07-06T01:24:48;16.40;99.90
43047;DHT22;28672;49.358;8.780;2022-07-06T01:27:14;16.50;99.90
43047;DHT22;28672;49.358;8.780;2022-07-06T01:29:39;16.60;99.90
43047;DHT22;28672;49.358;8.780;2022-07-06T01:32:05;16.70;99.90
43047;DHT22;28672;49.358;8.780;2022-07-06T01:34:31;16.80;99.90
43047;DHT22;28672;49.358;8.780;2022-07-06T01:36:56;17.00;99.90
43047;DHT22;28672;49.358;8.780;2022-07-06T01:39:22;17.20;99.90
43047;DHT22;28672;49.358;8.780;2022-07-06T01:41:47;17.40;99.90
43047;DHT22;28672;49.358;8.780;2022-07-06T01:44:13;17.50;99.90
43047;DHT22;28672;49.358;8.780;2022-07-06T01:46:39;17.50;99.90
43047;DHT22;28672;49.358;8.780;2022-07-06T01:49:05;17.50;99.90
43047;DHT22;28672;49.358;8.780;2022-07-06T01:51:31;17.50;99.90
43047;DHT22;28672;49.358;8.780;2022-07-06T01:53:56;17.50;99.90
43047;DHT22;28672;49.358;8.780;2022-07-06T01:56:22;17.40;99.90
43047;DHT22;28672;49.358;8.780;2022-07-06T01:58:48;17.40;99.90
43047;DHT22;28672;49.358;8.780;2022-07-06T02:01:17;17.20;99.90
43047;DHT22;28672;49.358;8.780;2022-07-06T02:03:43;17.10;99.90
43047;DHT22;28672;49.358;8.780;2022-07-06T02:06:09;17.10;99.90
43047;DHT22;28672;49.358;8.780;2022-07-06T02:08:36;16.90;99.90
43047;DHT22;28672;49.358;8.780;2022-07-06T02:11:05;16.90;99.90
43047;DHT22;28672;49.358;8.780;2022-07-06T02:13:31;16.80;99.90
43047;DHT22;28672;49.358;8.780;2022-07-06T02:15:57;16.80;99.90
43047;DHT22;28672;49.358;8.780;2022-07-06T02:18:23;16.80;99.90
43047;DHT22;28672;49.358;8.780;2022-07-06T02:20:48;16.70;99.90
43047;DHT22;28672;49.358;8.780;2022-07-06T02:23:14;16.70;99.90
43047;DHT22;28672;49.358;8.780;2022-07-06T02:25:39;16.70;99.90
43047;DHT22;28672;49.358;8.780;2022-07-06T02:28:05;16.60;99.90
43047;DHT22;28672;49.358;8.780;2022-07-06T02:30:30;16.60;99.90
43047;DHT22;28672;49.358;8.780;2022-07-06T02:32:56;16.60;99.90
43047;DHT22;28672;49.358;8.780;2022-07-06T02:35:21;16.50;99.90
43047;DHT22;28672;49.358;8.780;2022-07-06T02:37:47;16.40;99.90
43047;DHT22;28672;49.358;8.780;2022-07-06T02:40:13;16.30;99.90
43047;DHT22;28672;49.358;8.780;2022-07-06T02:42:38;16.30;99.90
43047;DHT22;28672;49.358;8.780;2022-07-06T02:45:04;16.10;99.90
43047;DHT22;28672;49.358;8.780;2022-07-06T02:47:30;16.00;99.90
43047;DHT22;28672;49.358;8.780;2022-07-06T02:49:55;15.90;99.90
43047;DHT22;28672;49.358;8.780;2022-07-06T02:52:21;15.80;99.90
43047;DHT22;28672;49.358;8.780;2022-07-06T02:54:46;15.80;99.90
43047;DHT22;28672;49.358;8.780;2022-07-06T02:57:14;15.70;99.90
43047;DHT22;28672;49.358;8.780;2022-07-06T02:59:40;15.60;99.90
43047;DHT22;28672;49.358;8.780;2022-07-06T03:02:05;15.50;99.90
43047;DHT22;28672;49.358;8.780;2022-07-06T03:04:31;15.50;99.90
43047;DHT22;28672;49.358;8.780;2022-07-06T03:06:57;15.40;99.90
43047;DHT22;28672;49.358;8.780;2022-07-06T03:09:22;15.30;99.90
43047;DHT22;28672;49.358;8.780;2022-07-06T03:11:48;15.30;99.90
43047;DHT22;28672;49.358;8.780;2022-07-06T03:14:13;15.20;99.90
43047;DHT22;28672;49.358;8.780;2022-07-06T03:16:39;15.20;99.90
43047;DHT22;28672;49.358;8.780;2022-07-06T03:19:04;15.10;99.90
43047;DHT22;28672;49.358;8.780;2022-07-06T03:21:30;15.10;99.90
43047;DHT22;28672;49.358;8.780;2022-07-06T03:23:55;15.00;99.90
43047;DHT22;28672;49.358;8.780;2022-07-06T03:26:21;15.00;99.90
43047;DHT22;28672;49.358;8.780;2022-07-06T03:28:46;14.90;99.90
43047;DHT22;28672;49.358;8.780;2022-07-06T03:31:12;14.80;99.90
43047;DHT22;28672;49.358;8.780;2022-07-06T03:33:37;14.80;99.90
43047;DHT22;28672;49.358;8.780;2022-07-06T03:36:03;14.80;99.90
43047;DHT22;28672;49.358;8.780;2022-07-06T03:38:30;14.70;99.90
43047;DHT22;28672;49.358;8.780;2022-07-06T03:40:56;14.70;99.90
43047;DHT22;28672;49.358;8.780;2022-07-06T03:43:21;14.70;99.90
43047;DHT22;28672;49.358;8.780;2022-07-06T03:45:47;14.70;99.90
43047;DHT22;28672;49.358;8.780;2022-07-06T03:48:12;14.70;99.90
43047;DHT22;28672;49.358;8.780;2022-07-06T03:50:38;14.80;99.90
43047;DHT22;28672;49.358;8.780;2022-07-06T03:53:03;14.70;99.90
43047;DHT22;28672;49.358;8.780;2022-07-06T03:55:29;14.70;99.90
43047;DHT22;28672;49.358;8.780;2022-07-06T03:57:54;14.70;99.90
43047;DHT22;28672;49.358;8.780;2022-07-06T04:00:20;14.70;99.90
43047;DHT22;28672;49.358;8.780;2022-07-06T04:02:45;14.60;99.90
43047;DHT22;28672;49.358;8.780;2022-07-06T04:05:11;14.70;99.90
43047;DHT22;28672;49.358;8.780;2022-07-06T04:07:36;14.70;99.90
43047;DHT22;28672;49.358;8.780;2022-07-06T04:10:02;14.80;99.90
43047;DHT22;28672;49.358;8.780;2022-07-06T04:12:28;14.70;99.90
43047;DHT22;28672;49.358;8.780;2022-07-06T04:14:56;14.70;99.90
43047;DHT22;28672;49.358;8.780;2022-07-06T04:17:23;14.80;99.90
43047;DHT22;28672;49.358;8.780;2022-07-06T04:20:08;14.80;99.90
43047;DHT22;28672;49.358;8.780;2022-07-06T04:22:37;14.90;99.90
43047;DHT22;28672;49.358;8.780;2022-07-06T04:25:03;15.00;99.90
43047;DHT22;28672;49.358;8.780;2022-07-06T04:27:28;15.10;99.90
43047;DHT22;28672;49.358;8.780;2022-07-06T04:29:54;15.20;99.90
43047;DHT22;28672;49.358;8.780;2022-07-06T04:32:19;15.30;99.90
43047;DHT22;28672;49.358;8.780;2022-07-06T04:34:45;15.40;99.90
43047;DHT22;28672;49.358;8.780;2022-07-06T04:37:10;15.50;99.90
43047;DHT22;28672;49.358;8.780;2022-07-06T04:39:36;15.60;99.90
43047;DHT22;28672;49.358;8.780;2022-07-06T04:42:01;15.80;99.90
43047;DHT22;28672;49.358;8.780;2022-07-06T04:44:27;15.80;99.90
43047;DHT22;28672;49.358;8.780;2022-07-06T04:46:52;16.00;99.90
43047;DHT22;28672;49.358;8.780;2022-07-06T04:49:18;16.20;99.90
43047;DHT22;28672;49.358;8.780;2022-07-06T04:51:43;16.50;99.90
43047;DHT22;28672;49.358;8.780;2022-07-06T04:54:09;17.20;99.90
43047;DHT22;28672;49.358;8.780;2022-07-06T04:56:34;17.50;99.90
43047;DHT22;28672;49.358;8.780;2022-07-06T04:59:00;17.60;99.90
43047;DHT22;28672;49.358;8.780;2022-07-06T05:01:25;17.90;99.90
43047;DHT22;28672;49.358;8.780;2022-07-06T05:03:51;17.80;99.90
43047;DHT22;28672;49.358;8.780;2022-07-06T05:06:16;17.90;99.90
43047;DHT22;28672;49.358;8.780;2022-07-06T05:08:43;17.60;99.90
43047;DHT22;28672;49.358;8.780;2022-07-06T05:11:09;17.60;99.90
43047;DHT22;28672;49.358;8.780;2022-07-06T05:13:34;17.50;99.90
43047;DHT22;28672;49.358;8.780;2022-07-06T05:15:59;17.20;99.90
43047;DHT22;28672;49.358;8.780;2022-07-06T05:18:25;17.30;99.90
43047;DHT22;28672;49.358;8.780;2022-07-06T05:20:50;17.20;99.90
43047;DHT22;28672;49.358;8.780;2022-07-06T05:23:16;17.10;99.90
43047;DHT22;28672;49.358;8.780;2022-07-06T05:25:42;17.10;99.90
43047;DHT22;28672;49.358;8.780;2022-07-06T05:28:07;17.40;99.90
43047;DHT22;28672;49.358;8.780;2022-07-06T05:30:33;17.80;99.90
43047;DHT22;28672;49.358;8.780;2022-07-06T05:32:58;18.40;99.90
43047;DHT22;28672;49.358;8.780;2022-07-06T05:35:24;19.20;99.90
43047;DHT22;28672;49.358;8.780;2022-07-06T05:37:49;19.80;99.90
43047;DHT22;28672;49.358;8.780;2022-07-06T05:40:15;20.00;99.90
43047;DHT22;28672;49.358;8.780;2022-07-06T05:42:41;20.10;99.90
43047;DHT22;28672;49.358;8.780;2022-07-06T05:45:07;20.50;99.90
43047;DHT22;28672;49.358;8.780;2022-07-06T05:47:32;21.40;99.90
43047;DHT22;28672;49.358;8.780;2022-07-06T05:50:16;21.30;99.90
43047;DHT22;28672;49.358;8.780;2022-07-06T05:52:44;21.30;99.90
43047;DHT22;28672;49.358;8.780;2022-07-06T05:55:19;21.30;99.90
43047;DHT22;28672;49.358;8.780;2022-07-06T05:57:45;21.60;99.90
43047;DHT22;28672;49.358;8.780;2022-07-06T06:00:10;21.90;99.90
43047;DHT22;28672;49.358;8.780;2022-07-06T06:02:40;21.80;99.90
43047;DHT22;28672;49.358;8.780;2022-07-06T06:05:06;21.80;99.90
43047;DHT22;28672;49.358;8.780;2022-07-06T06:07:34;21.90;99.90
43047;DHT22;28672;49.358;8.780;2022-07-06T06:10:00;22.10;99.90
43047;DHT22;28672;49.358;8.780;2022-07-06T06:12:26;22.40;99.90
43047;DHT22;28672;49.358;8.780;2022-07-06T06:14:51;22.00;99.90
43047;DHT22;28672;49.358;8.780;2022-07-06T06:17:17;21.90;99.90
43047;DHT22;28672;49.358;8.780;2022-07-06T06:19:42;22.20;99.90
43047;DHT22;28672;49.358;8.780;2022-07-06T06:22:08;22.40;99.90
43047;DHT22;28672;49.358;8.780;2022-07-06T06:24:33;22.30;99.90
43047;DHT22;28672;49.358;8.780;2022-07-06T06:26:59;22.50;99.90
43047;DHT22;28672;49.358;8.780;2022-07-06T06:29:24;22.30;99.90
43047;DHT22;28672;49.358;8.780;2022-07-06T06:31:50;21.90;99.90
43047;DHT22;28672;49.358;8.780;2022-07-06T06:34:15;21.80;99.90
43047;DHT22;28672;49.358;8.780;2022-07-06T06:36:41;22.00;99.90
43047;DHT22;28672;49.358;8.780;2022-07-06T06:39:06;22.00;99.90
43047;DHT22;28672;49.358;8.780;2022-07-06T06:41:32;22.30;99.90
43047;DHT22;28672;49.358;8.780;2022-07-06T06:43:58;22.30;99.90
43047;DHT22;28672;49.358;8.780;2022-07-06T06:46:23;22.40;99.90
43047;DHT22;28672;49.358;8.780;2022-07-06T06:48:49;22.40;99.90
43047;DHT22;28672;49.358;8.780;2022-07-06T06:51:14;22.50;99.90
43047;DHT22;28672;49.358;8.780;2022-07-06T06:53:40;22.80;99.90
43047;DHT22;28672;49.358;8.780;2022-07-06T06:56:07;23.00;99.90
43047;DHT22;28672;49.358;8.780;2022-07-06T06:58:33;22.70;99.90
43047;DHT22;28672;49.358;8.780;2022-07-06T07:00:59;22.40;99.90
43047;DHT22;28672;49.358;8.780;2022-07-06T07:03:24;22.60;99.90
43047;DHT22;28672;49.358;8.780;2022-07-06T07:05:50;22.40;99.90
43047;DHT22;28672;49.358;8.780;2022-07-06T07:08:15;22.40;99.90
43047;DHT22;28672;49.358;8.780;2022-07-06T07:10:41;22.30;99.90
43047;DHT22;28672;49.358;8.780;2022-07-06T07:13:06;22.60;99.90
43047;DHT22;28672;49.358;8.780;2022-07-06T07:15:32;22.40;99.90
43047;DHT22;28672;49.358;8.780;2022-07-06T07:17:58;22.30;99.90
43047;DHT22;28672;49.358;8.780;2022-07-06T07:20:23;22.30;99.90
43047;DHT22;28672;49.358;8.780;2022-07-06T07:22:50;22.20;99.90
43047;DHT22;28672;49.358;8.780;2022-07-06T07:25:16;22.30;99.90
43047;DHT22;28672;49.358;8.780;2022-07-06T07:27:41;21.70;99.90
43047;DHT22;28672;49.358;8.780;2022-07-06T07:30:07;21.60;99.90
43047;DHT22;28672;49.358;8.780;2022-07-06T07:32:33;21.70;99.90
43047;DHT22;28672;49.358;8.780;2022-07-06T07:34:59;21.90;99.90
43047;DHT22;28672;49.358;8.780;2022-07-06T07:37:24;22.40;99.90
43047;DHT22;28672;49.358;8.780;2022-07-06T07:39:50;22.00;99.90
43047;DHT22;28672;49.358;8.780;2022-07-06T07:42:15;22.10;99.90
43047;DHT22;28672;49.358;8.780;2022-07-06T07:44:41;22.30;99.90
43047;DHT22;28672;49.358;8.780;2022-07-06T07:47:07;22.30;99.90
43047;DHT22;28672;49.358;8.780;2022-07-06T07:49:32;22.20;99.90
43047;DHT22;28672;49.358;8.780;2022-07-06T07:51:58;22.40;99.90
43047;DHT22;28672;49.358;8.780;2022-07-06T07:54:23;22.40;99.90
43047;DHT22;28672;49.358;8.780;2022-07-06T07:56:49;22.20;99.90
43047;DHT22;28672;49.358;8.780;2022-07-06T07:59:14;22.10;99.90
43047;DHT22;28672;49.358;8.780;2022-07-06T08:01:40;22.30;99.90
43047;DHT22;28672;49.358;8.780;2022-07-06T08:04:05;22.60;99.90
43047;DHT22;28672;49.358;8.780;2022-07-06T08:06:31;23.10;99.90
43047;DHT22;28672;49.358;8.780;2022-07-06T08:08:57;23.30;99.90
43047;DHT22;28672;49.358;8.780;2022-07-06T08:11:22;23.30;99.90
43047;DHT22;28672;49.358;8.780;2022-07-06T08:13:48;23.30;99.90
43047;DHT22;28672;49.358;8.780;2022-07-06T08:16:13;23.20;99.90
43047;DHT22;28672;49.358;8.780;2022-07-06T08:18:39;22.60;99.90
43047;DHT22;28672;49.358;8.780;2022-07-06T08:21:05;23.00;99.90
43047;DHT22;28672;49.358;8.780;2022-07-06T08:23:31;23.00;99.90
43047;DHT22;28672;49.358;8.780;2022-07-06T08:25:56;22.80;99.90
43047;DHT22;28672;49.358;8.780;2022-07-06T08:28:22;22.80;99.90
43047;DHT22;28672;49.358;8.780;2022-07-06T08:30:47;22.50;99.90
43047;DHT22;28672;49.358;8.780;2022-07-06T08:33:14;22.60;99.90
43047;DHT22;28672;49.358;8.780;2022-07-06T08:35:39;22.80;99.90
43047;DHT22;28672;49.358;8.780;2022-07-06T08:38:05;23.10;99.90
43047;DHT22;28672;49.358;8.780;2022-07-06T08:40:34;23.10;99.90
43047;DHT22;28672;49.358;8.780;2022-07-06T08:43:02;23.30;99.90
43047;DHT22;28672;49.358;8.780;2022-07-06T08:45:29;23.60;99.90
43047;DHT22;28672;49.358;8.780;2022-07-06T08:47:57;23.40;99.90
43047;DHT22;28672;49.358;8.780;2022-07-06T08:50:25;23.40;99.90
43047;DHT22;28672;49.358;8.780;2022-07-06T08:52:50;23.70;99.90
43047;DHT22;28672;49.358;8.780;2022-07-06T08:55:17;23.60;99.90
43047;DHT22;28672;49.358;8.780;2022-07-06T08:57:45;23.80;99.90
43047;DHT22;28672;49.358;8.780;2022-07-06T09:00:11;24.10;99.90
43047;DHT22;28672;49.358;8.780;2022-07-06T09:02:37;23.90;99.90
43047;DHT22;28672;49.358;8.780;2022-07-06T09:05:05;23.80;99.90
43047;DHT22;28672;49.358;8.780;2022-07-06T09:07:32;23.80;99.90
43047;DHT22;28672;49.358;8.780;2022-07-06T09:09:59;23.80;99.90
43047;DHT22;28672;49.358;8.780;2022-07-06T09:12:26;24.10;99.90
43047;DHT22;28672;49.358;8.780;2022-07-06T09:14:55;24.30;99.90
43047;DHT22;28672;49.358;8.780;2022-07-06T09:17:25;23.80;99.90
43047;DHT22;28672;49.358;8.780;2022-07-06T09:19:51;24.00;99.90
43047;DHT22;28672;49.358;8.780;2022-07-06T09:22:28;24.30;99.90
43047;DHT22;28672;49.358;8.780;2022-07-06T09:25:00;24.40;99.90
43047;DHT22;28672;49.358;8.780;2022-07-06T09:27:26;24.10;99.90
43047;DHT22;28672;49.358;8.780;2022-07-06T09:29:51;24.40;99.90
43047;DHT22;28672;49.358;8.780;2022-07-06T09:32:20;24.40;99.90
43047;DHT22;28672;49.358;8.780;2022-07-06T09:34:46;24.40;99.90
43047;DHT22;28672;49.358;8.780;2022-07-06T09:37:13;24.20;99.90
43047;DHT22;28672;49.358;8.780;2022-07-06T09:39:39;24.30;99.90
43047;DHT22;28672;49.358;8.780;2022-07-06T09:42:06;24.60;99.90
43047;DHT22;28672;49.358;8.780;2022-07-06T09:44:37;24.90;99.90
43047;DHT22;28672;49.358;8.780;2022-07-06T09:47:11;25.00;99.90
43047;DHT22;28672;49.358;8.780;2022-07-06T09:49:38;24.20;99.90
43047;DHT22;28672;49.358;8.780;2022-07-06T09:52:05;23.40;99.90
43047;DHT22;28672;49.358;8.780;2022-07-06T09:54:35;23.40;99.90
43047;DHT22;28672;49.358;8.780;2022-07-06T09:57:02;23.70;99.90
43047;DHT22;28672;49.358;8.780;2022-07-06T09:59:29;24.30;99.90
43047;DHT22;28672;49.358;8.780;2022-07-06T10:02:00;24.70;99.90
43047;DHT22;28672;49.358;8.780;2022-07-06T10:04:27;24.30;99.90
43047;DHT22;28672;49.358;8.780;2022-07-06T10:06:54;24.60;99.90
43047;DHT22;28672;49.358;8.780;2022-07-06T10:09:21;24.90;99.90
43047;DHT22;28672;49.358;8.780;2022-07-06T10:12:01;25.00;99.90
43047;DHT22;28672;49.358;8.780;2022-07-06T10:14:32;24.90;99.90
43047;DHT22;28672;49.358;8.780;2022-07-06T10:17:00;24.60;99.90
43047;DHT22;28672;49.358;8.780;2022-07-06T10:19:27;24.50;99.90
43047;DHT22;28672;49.358;8.780;2022-07-06T10:21:52;24.50;99.90
43047;DHT22;28672;49.358;8.780;2022-07-06T10:24:19;24.30;99.90
43047;DHT22;28672;49.358;8.780;2022-07-06T10:26:46;24.30;99.90
43047;DHT22;28672;49.358;8.780;2022-07-06T10:29:12;24.30;99.90
43047;DHT22;28672;49.358;8.780;2022-07-06T10:31:48;24.60;99.90
43047;DHT22;28672;49.358;8.780;2022-07-06T10:34:15;24.40;99.90
43047;DHT22;28672;49.358;8.780;2022-07-06T10:36:44;23.80;99.90
43047;DHT22;28672;49.358;8.780;2022-07-06T10:39:10;23.60;99.90
43047;DHT22;28672;49.358;8.780;2022-07-06T10:41:54;23.80;99.90
43047;DHT22;28672;49.358;8.780;2022-07-06T10:44:24;24.00;99.90
43047;DHT22;28672;49.358;8.780;2022-07-06T10:46:54;24.40;99.90
43047;DHT22;28672;49.358;8.780;2022-07-06T10:49:21;24.80;99.90
43047;DHT22;28672;49.358;8.780;2022-07-06T10:51:48;24.70;99.90
43047;DHT22;28672;49.358;8.780;2022-07-06T10:54:15;24.60;99.90
43047;DHT22;28672;49.358;8.780;2022-07-06T10:56:45;24.00;99.90
43047;DHT22;28672;49.358;8.780;2022-07-06T10:59:12;23.70;99.90
43047;DHT22;28672;49.358;8.780;2022-07-06T11:01:37;23.80;99.90
43047;DHT22;28672;49.358;8.780;2022-07-06T11:06:32;24.00;99.90
43047;DHT22;28672;49.358;8.780;2022-07-06T11:09:08;24.70;99.90
43047;DHT22;28672;49.358;8.780;2022-07-06T11:14:08;24.00;99.90
43047;DHT22;28672;49.358;8.780;2022-07-06T11:16:59;23.90;99.90
43047;DHT22;28672;49.358;8.780;2022-07-06T11:19:26;24.00;99.90
43047;DHT22;28672;49.358;8.780;2022-07-06T11:21:56;24.00;99.90
43047;DHT22;28672;49.358;8.780;2022-07-06T11:24:31;24.10;99.90
43047;DHT22;28672;49.358;8.780;2022-07-06T11:26:57;24.60;99.90
43047;DHT22;28672;49.358;8.780;2022-07-06T11:29:26;24.80;99.90
43047;DHT22;28672;49.358;8.780;2022-07-06T11:31:56;24.90;99.90
43047;DHT22;28672;49.358;8.780;2022-07-06T11:34:26;25.00;99.90
43047;DHT22;28672;49.358;8.780;2022-07-06T11:37:04;24.80;99.90
43047;DHT22;28672;49.358;8.780;2022-07-06T11:39:31;24.90;99.90
43047;DHT22;28672;49.358;8.780;2022-07-06T11:41:58;24.80;99.90
43047;DHT22;28672;49.358;8.780;2022-07-06T11:44:24;24.80;99.90
43047;DHT22;28672;49.358;8.780;2022-07-06T11:46:50;24.60;99.90
43047;DHT22;28672;49.358;8.780;2022-07-06T11:49:16;24.00;99.90
43047;DHT22;28672;49.358;8.780;2022-07-06T11:51:44;24.40;99.90
43047;DHT22;28672;49.358;8.780;2022-07-06T11:54:15;25.00;99.90
43047;DHT22;28672;49.358;8.780;2022-07-06T11:56:51;25.20;99.60
43047;DHT22;28672;49.358;8.780;2022-07-06T11:59:27;25.20;98.50
43047;DHT22;28672;49.358;8.780;2022-07-06T12:02:07;25.10;98.50
43047;DHT22;28672;49.358;8.780;2022-07-06T12:04:35;25.40;97.70
43047;DHT22;28672;49.358;8.780;2022-07-06T12:07:02;25.30;97.20
43047;DHT22;28672;49.358;8.780;2022-07-06T12:09:35;25.40;97.20
43047;DHT22;28672;49.358;8.780;2022-07-06T12:12:02;24.60;97.60
43047;DHT22;28672;49.358;8.780;2022-07-06T12:14:30;24.80;97.80
43047;DHT22;28672;49.358;8.780;2022-07-06T12:16:55;24.80;96.50
43047;DHT22;28672;49.358;8.780;2022-07-06T12:19:22;25.10;96.60
43047;DHT22;28672;49.358;8.780;2022-07-06T12:21:50;25.00;96.90
43047;DHT22;28672;49.358;8.780;2022-07-06T12:24:26;24.90;96.90
43047;DHT22;28672;49.358;8.780;2022-07-06T12:26:54;24.10;96.40
43047;DHT22;28672;49.358;8.780;2022-07-06T12:29:20;24.30;97.40
43047;DHT22;28672;49.358;8.780;2022-07-06T12:31:52;24.70;96.80
43047;DHT22;28672;49.358;8.780;2022-07-06T12:34:21;25.20;96.20
43047;DHT22;28672;49.358;8.780;2022-07-06T12:36:52;25.10;95.10
43047;DHT22;28672;49.358;8.780;2022-07-06T12:39:20;25.70;93.70
43047;DHT22;28672;49.358;8.780;2022-07-06T12:41:50;25.60;93.00
43047;DHT22;28672;49.358;8.780;2022-07-06T12:44:18;25.80;93.50
43047;DHT22;28672;49.358;8.780;2022-07-06T12:46:44;25.20;93.60
43047;DHT22;28672;49.358;8.780;2022-07-06T12:52:01;24.80;93.90
43047;DHT22;28672;49.358;8.780;2022-07-06T12:54:45;24.90;94.10
43047;DHT22;28672;49.358;8.780;2022-07-06T12:57:21;25.40;92.80
43047;DHT22;28672;49.358;8.780;2022-07-06T13:02:20;25.60;91.40
43047;DHT22;28672;49.358;8.780;2022-07-06T13:05:08;25.60;91.40
43047;DHT22;28672;49.358;8.780;2022-07-06T13:07:36;26.00;91.10
43047;DHT22;28672;49.358;8.780;2022-07-06T13:10:07;25.90;91.10
43047;DHT22;28672;49.358;8.780;2022-07-06T13:12:33;25.50;90.10
43047;DHT22;28672;49.358;8.780;2022-07-06T13:14:59;25.20;90.70
43047;DHT22;28672;49.358;8.780;2022-07-06T13:17:24;25.30;91.50
43047;DHT22;28672;49.358;8.780;2022-07-06T13:19:50;25.30;91.20
43047;DHT22;28672;49.358;8.780;2022-07-06T13:22:15;25.40;91.40
43047;DHT22;28672;49.358;8.780;2022-07-06T13:24:41;25.90;91.00
43047;DHT22;28672;49.358;8.780;2022-07-06T13:27:08;25.30;91.20
43047;DHT22;28672;49.358;8.780;2022-07-06T13:29:34;25.60;91.70
43047;DHT22;28672;49.358;8.780;2022-07-06T13:31:59;25.90;91.00
43047;DHT22;28672;49.358;8.780;2022-07-06T13:34:25;26.00;90.90
43047;DHT22;28672;49.358;8.780;2022-07-06T13:36:51;25.60;90.30
43047;DHT22;28672;49.358;8.780;2022-07-06T13:39:17;25.10;90.30
43047;DHT22;28672;49.358;8.780;2022-07-06T13:41:43;24.80;91.20
43047;DHT22;28672;49.358;8.780;2022-07-06T13:44:08;24.90;92.00
43047;DHT22;28672;49.358;8.780;2022-07-06T13:46:35;25.00;90.80
43047;DHT22;28672;49.358;8.780;2022-07-06T13:49:03;25.40;90.80
43047;DHT22;28672;49.358;8.780;2022-07-06T13:51:28;25.00;90.30
43047;DHT22;28672;49.358;8.780;2022-07-06T13:53:54;25.00;90.90
43047;DHT22;28672;49.358;8.780;2022-07-06T13:56:20;25.40;90.50
43047;DHT22;28672;49.358;8.780;2022-07-06T13:58:45;25.00;90.20
43047;DHT22;28672;49.358;8.780;2022-07-06T14:01:11;25.40;90.50
43047;DHT22;28672;49.358;8.780;2022-07-06T14:03:37;25.40;90.70
43047;DHT22;28672;49.358;8.780;2022-07-06T14:06:04;24.70;90.10
43047;DHT22;28672;49.358;8.780;2022-07-06T14:08:30;24.90;90.10
43047;DHT22;28672;49.358;8.780;2022-07-06T14:10:56;24.90;90.20
43047;DHT22;28672;49.358;8.780;2022-07-06T14:13:22;25.30;90.20
43047;DHT22;28672;49.358;8.780;2022-07-06T14:15:48;25.60;90.00
43047;DHT22;28672;49.358;8.780;2022-07-06T14:18:15;25.40;90.40
43047;DHT22;28672;49.358;8.780;2022-07-06T14:20:45;25.30;89.70
43047;DHT22;28672;49.358;8.780;2022-07-06T14:23:12;25.20;90.00
43047;DHT22;28672;49.358;8.780;2022-07-06T14:25:39;25.00;89.90
43047;DHT22;28672;49.358;8.780;2022-07-06T14:28:04;24.90;89.60
43047;DHT22;28672;49.358;8.780;2022-07-06T14:30:31;25.00;90.20
43047;DHT22;28672;49.358;8.780;2022-07-06T14:32:57;25.00;90.00
43047;DHT22;28672;49.358;8.780;2022-07-06T14:35:23;24.60;90.40
43047;DHT22;28672;49.358;8.780;2022-07-06T14:37:50;25.10;90.50
43047;DHT22;28672;49.358;8.780;2022-07-06T14:40:16;25.50;90.00
43047;DHT22;28672;49.358;8.780;2022-07-06T14:42:42;25.40;88.20
43047;DHT22;28672;49.358;8.780;2022-07-06T14:45:08;25.40;89.00
43047;DHT22;28672;49.358;8.780;2022-07-06T14:47:34;25.50;90.20
43047;DHT22;28672;49.358;8.780;2022-07-06T14:50:02;25.10;90.00
43047;DHT22;28672;49.358;8.780;2022-07-06T14:52:27;24.90;90.60
43047;DHT22;28672;49.358;8.780;2022-07-06T14:54:53;25.40;90.20
43047;DHT22;28672;49.358;8.780;2022-07-06T14:57:18;25.50;90.20
43047;DHT22;28672;49.358;8.780;2022-07-06T14:59:45;25.50;89.00
43047;DHT22;28672;49.358;8.780;2022-07-06T15:02:11;25.60;89.30
43047;DHT22;28672;49.358;8.780;2022-07-06T15:04:36;25.50;89.30
43047;DHT22;28672;49.358;8.780;2022-07-06T15:07:02;25.40;89.00
43047;DHT22;28672;49.358;8.780;2022-07-06T15:09:28;25.40;90.00
43047;DHT22;28672;49.358;8.780;2022-07-06T15:11:55;24.90;90.00
43047;DHT22;28672;49.358;8.780;2022-07-06T15:14:20;24.90;89.80
43047;DHT22;28672;49.358;8.780;2022-07-06T15:16:46;25.00;90.00
43047;DHT22;28672;49.358;8.780;2022-07-06T15:19:11;24.90;90.20
43047;DHT22;28672;49.358;8.780;2022-07-06T15:21:37;24.60;90.00
43047;DHT22;28672;49.358;8.780;2022-07-06T15:24:03;25.30;90.40
43047;DHT22;28672;49.358;8.780;2022-07-06T15:26:28;25.20;89.30
43047;DHT22;28672;49.358;8.780;2022-07-06T15:28:54;24.80;88.90
43047;DHT22;28672;49.358;8.780;2022-07-06T15:31:19;25.10;90.30
43047;DHT22;28672;49.358;8.780;2022-07-06T15:33:45;25.30;90.20
43047;DHT22;28672;49.358;8.780;2022-07-06T15:36:10;25.40;89.60
43047;DHT22;28672;49.358;8.780;2022-07-06T15:38:36;24.90;89.40